Terminal Aerodrome Forecast
Issued by NWS

Home | Current Version | Previous Version | Text Only | Print | Product List | Glossary On
Versions: 1 2 3 4 5 6 7 8 9 10 11 12 13 14 15 16 17 18 19 20 21 22 23 24 25 26
000
FTUS43 KGRB 180500
TAFMTW
TAF
KMTW 180539Z 1806/1906 04004KT 6SM BR SCT007 BKN090
      TEMPO 1808/1812 1 1/2SM BR BKN007
     FM181400 14006KT P6SM BKN045 OVC070 PROB30 1816/1819 4SM SHRA
      BKN025
     FM181900 17007KT P6SM VCTS BKN035CB
      TEMPO 1819/1823 3SM -SHRA BKN022
     FM182300 16006KT 5SM -SHRA BKN022
     FM190300 17003KT 3SM -SHRA BR BKN014=

USA.gov is the U.S. government's official web portal to all federal, state and local government web resources and services.